createdAt,value
2019-02-06T00:00:41.015Z,-2.20
2019-02-06T00:03:10.682Z,-2.20
2019-02-06T00:05:39.157Z,-2.20
2019-02-06T00:08:08.947Z,-2.20
2019-02-06T00:10:37.507Z,-2.30
2019-02-06T00:13:06.240Z,-2.30
2019-02-06T00:15:34.810Z,-2.30
2019-02-06T00:18:03.357Z,-2.20
2019-02-06T00:20:32.181Z,-2.20
2019-02-06T00:23:00.647Z,-2.20
2019-02-06T00:25:29.138Z,-2.30
2019-02-06T00:27:57.558Z,-2.30
2019-02-06T00:30:26.266Z,-2.30
2019-02-06T00:32:54.745Z,-2.30
2019-02-06T00:35:25.861Z,-2.30
2019-02-06T00:37:53.703Z,-2.30
2019-02-06T00:40:22.126Z,-2.30
2019-02-06T00:42:50.520Z,-2.30
2019-02-06T00:45:18.949Z,-2.30
2019-02-06T00:47:47.447Z,-2.20
2019-02-06T00:50:16.623Z,-2.20
2019-02-06T00:52:45.046Z,-2.20
2019-02-06T00:55:14.911Z,-2.20
2019-02-06T00:57:43.458Z,-2.20
2019-02-06T01:00:22.576Z,-2.30
2019-02-06T01:02:52.450Z,-2.30
2019-02-06T01:05:21.497Z,-2.40
2019-02-06T01:07:50.191Z,-2.40
2019-02-06T01:10:21.343Z,-2.50
2019-02-06T01:12:49.756Z,-2.40
2019-02-06T01:15:18.158Z,-2.30
2019-02-06T01:17:46.671Z,-2.40
2019-02-06T01:20:17.674Z,-2.40
2019-02-06T01:22:46.226Z,-2.40
2019-02-06T01:25:17.078Z,-2.30
2019-02-06T01:27:45.499Z,-2.40
2019-02-06T01:30:22.820Z,-2.50
2019-02-06T01:32:51.311Z,-2.50
2019-02-06T01:35:19.807Z,-2.50
2019-02-06T01:37:48.257Z,-2.50
2019-02-06T01:40:19.105Z,-2.50
2019-02-06T01:42:47.543Z,-2.50
2019-02-06T01:45:18.516Z,-2.40
2019-02-06T01:47:47.004Z,-2.40
2019-02-06T01:50:17.591Z,-2.50
2019-02-06T01:52:46.084Z,-2.40
2019-02-06T01:55:15.929Z,-2.50
2019-02-06T01:57:44.474Z,-2.50
2019-02-06T02:00:18.859Z,-2.50
2019-02-06T02:02:47.364Z,-2.40
2019-02-06T02:05:18.232Z,-2.50
2019-02-06T02:07:47.913Z,-2.60
2019-02-06T02:10:16.870Z,-2.60
2019-02-06T02:12:45.475Z,-2.60
2019-02-06T02:15:18.753Z,-2.60
2019-02-06T02:17:47.316Z,-2.60
2019-02-06T02:20:23.846Z,-2.60
2019-02-06T02:22:52.421Z,-2.60
2019-02-06T02:25:21.162Z,-2.60
2019-02-06T02:27:49.593Z,-2.60
2019-02-06T02:30:34.598Z,-2.60
2019-02-06T02:33:03.015Z,-2.60
2019-02-06T02:35:31.444Z,-2.70
2019-02-06T02:37:59.862Z,-2.70
2019-02-06T02:40:28.314Z,-2.70
2019-02-06T02:42:56.777Z,-2.70
2019-02-06T02:45:25.682Z,-2.60
2019-02-06T02:47:54.184Z,-2.50
2019-02-06T02:50:22.587Z,-2.60
2019-02-06T02:52:51.002Z,-2.50
2019-02-06T02:55:19.430Z,-2.50
2019-02-06T02:57:47.951Z,-2.60
2019-02-06T03:00:38.601Z,-2.60
2019-02-06T03:03:20.844Z,-2.60
2019-02-06T03:05:49.429Z,-2.60
2019-02-06T03:08:17.852Z,-2.50
2019-02-06T03:10:46.652Z,-2.50
2019-02-06T03:13:15.078Z,-2.50
2019-02-06T03:15:43.507Z,-2.50
2019-02-06T03:18:11.932Z,-2.50
2019-02-06T03:20:40.389Z,-2.50
2019-02-06T03:23:08.879Z,-2.60
2019-02-06T03:25:37.285Z,-2.70
2019-02-06T03:28:05.923Z,-2.60
2019-02-06T03:30:34.425Z,-2.60
2019-02-06T03:33:02.919Z,-2.60
2019-02-06T03:35:31.317Z,-2.60
2019-02-06T03:37:59.967Z,-2.60
2019-02-06T03:40:28.417Z,-2.70
2019-02-06T03:42:57.238Z,-2.70
2019-02-06T03:45:25.734Z,-2.70
2019-02-06T03:47:54.159Z,-2.70
2019-02-06T03:50:22.589Z,-2.80
2019-02-06T03:52:51.001Z,-2.70
2019-02-06T03:55:19.415Z,-2.70
2019-02-06T03:57:47.818Z,-2.80
2019-02-06T04:00:18.968Z,-2.60
2019-02-06T04:02:47.617Z,-2.60
2019-02-06T04:05:16.228Z,-2.70
2019-02-06T04:07:44.659Z,-2.70
2019-02-06T04:10:19.189Z,-2.80
2019-02-06T04:12:47.662Z,-2.70
2019-02-06T04:15:16.617Z,-2.60
2019-02-06T04:17:45.043Z,-2.70
2019-02-06T04:20:14.818Z,-2.50
2019-02-06T04:22:44.191Z,-2.60
2019-02-06T04:25:14.549Z,-2.70
2019-02-06T04:27:42.972Z,-2.90
2019-02-06T04:30:14.492Z,-2.90
2019-02-06T04:32:42.927Z,-2.90
2019-02-06T04:35:13.063Z,-2.80
2019-02-06T04:37:41.465Z,-2.80
2019-02-06T04:40:16.122Z,-2.80
2019-02-06T04:42:44.659Z,-2.80
2019-02-06T04:45:15.913Z,-2.70
2019-02-06T04:47:44.499Z,-2.90
2019-02-06T04:50:14.636Z,-3.00
2019-02-06T04:52:43.150Z,-3.00
2019-02-06T04:55:16.639Z,-3.00
2019-02-06T04:57:45.510Z,-3.00
2019-02-06T05:00:25.766Z,-3.00
2019-02-06T05:02:54.750Z,-2.90
2019-02-06T05:05:23.371Z,-2.90
2019-02-06T05:07:51.788Z,-3.00
2019-02-06T05:10:20.214Z,-3.10
2019-02-06T05:12:48.997Z,-3.20
2019-02-06T05:15:18.086Z,-3.20
2019-02-06T05:17:46.551Z,-3.30
2019-02-06T05:20:27.280Z,-3.30
2019-02-06T05:22:55.695Z,-3.30
2019-02-06T05:25:24.477Z,-3.30
2019-02-06T05:27:52.895Z,-3.20
2019-02-06T05:30:22.283Z,-3.10
2019-02-06T05:32:50.684Z,-3.00
2019-02-06T05:35:19.105Z,-2.90
2019-02-06T05:37:47.531Z,-2.90
2019-02-06T05:40:16.093Z,-3.00
2019-02-06T05:42:44.884Z,-3.10
2019-02-06T05:45:14.056Z,-3.10
2019-02-06T05:47:42.657Z,-3.10
2019-02-06T05:50:16.109Z,-3.00
2019-02-06T05:52:44.683Z,-3.00
2019-02-06T05:55:14.731Z,-3.10
2019-02-06T05:57:43.663Z,-3.10
2019-02-06T06:00:18.171Z,-3.10
2019-02-06T06:02:46.671Z,-3.20
2019-02-06T06:05:15.167Z,-3.20
2019-02-06T06:07:45.492Z,-3.20
2019-02-06T06:10:16.505Z,-3.30
2019-02-06T06:12:45.303Z,-3.30
2019-02-06T06:15:16.203Z,-3.30
2019-02-06T06:17:44.656Z,-3.30
2019-02-06T06:20:18.563Z,-3.20
2019-02-06T06:22:47.030Z,-3.30
2019-02-06T06:25:17.319Z,-3.30
2019-02-06T06:27:47.071Z,-3.30
2019-02-06T06:30:19.922Z,-3.30
2019-02-06T06:32:48.481Z,-3.30
2019-02-06T06:35:16.978Z,-3.30
2019-02-06T06:37:57.122Z,-3.30
2019-02-06T06:40:20.869Z,-3.30
2019-02-06T06:42:49.486Z,-3.40
2019-02-06T06:45:20.297Z,-3.30
2019-02-06T06:47:48.708Z,-3.30
2019-02-06T06:50:19.496Z,-3.40
2019-02-06T06:52:48.013Z,-3.40
2019-02-06T06:55:17.252Z,-3.40
2019-02-06T06:57:46.273Z,-3.50
2019-02-06T07:00:23.307Z,-3.50
2019-02-06T07:02:51.783Z,-3.30
2019-02-06T07:05:20.343Z,-3.30
2019-02-06T07:07:49.715Z,-3.30
2019-02-06T07:10:18.686Z,-3.20
2019-02-06T07:12:47.172Z,-3.20
2019-02-06T07:15:18.227Z,-3.20
2019-02-06T07:17:46.794Z,-3.20
2019-02-06T07:20:17.342Z,-3.10
2019-02-06T07:22:45.908Z,-3.10
2019-02-06T07:25:16.882Z,-3.10
2019-02-06T07:27:45.454Z,-3.10
2019-02-06T07:30:22.185Z,-3.10
2019-02-06T07:32:50.596Z,-3.00
2019-02-06T07:35:19.191Z,-3.10
2019-02-06T07:37:47.596Z,-3.00
2019-02-06T07:40:16.862Z,-3.10
2019-02-06T07:42:45.274Z,-3.10
2019-02-06T07:45:16.599Z,-3.10
2019-02-06T07:47:45.039Z,-3.00
2019-02-06T07:50:18.988Z,-3.00
2019-02-06T07:52:47.426Z,-3.00
2019-02-06T07:55:16.359Z,-3.00
2019-02-06T07:57:44.982Z,-3.00
2019-02-06T08:00:13.399Z,-3.10
2019-02-06T08:03:01.152Z,-3.00
2019-02-06T08:05:29.757Z,-2.90
2019-02-06T08:07:58.534Z,-2.90
2019-02-06T08:10:35.035Z,-2.90
2019-02-06T08:13:04.804Z,-2.70
2019-02-06T08:15:33.218Z,-2.70
2019-02-06T08:18:01.638Z,-2.50
2019-02-06T08:20:30.327Z,-2.30
2019-02-06T08:22:58.745Z,-2.20
2019-02-06T08:25:27.249Z,-2.30
2019-02-06T08:27:55.644Z,-2.10
2019-02-06T08:30:35.709Z,-2.10
2019-02-06T08:33:04.402Z,-2.00
2019-02-06T08:35:33.262Z,-1.90
2019-02-06T08:38:01.677Z,-1.80
2019-02-06T08:40:31.661Z,-1.80
2019-02-06T08:43:00.439Z,-1.70
2019-02-06T08:45:28.930Z,-1.70
2019-02-06T08:47:57.420Z,-1.60
2019-02-06T08:50:26.369Z,-1.60
2019-02-06T08:52:54.948Z,-1.50
2019-02-06T08:55:31.933Z,-1.40
2019-02-06T08:58:01.211Z,-1.30
2019-02-06T09:00:34.957Z,-1.20
2019-02-06T09:03:03.812Z,-1.10
2019-02-06T09:05:32.379Z,-1.10
2019-02-06T09:08:00.819Z,-1.00
2019-02-06T09:10:30.737Z,-0.90
2019-02-06T09:12:59.992Z,-0.90
2019-02-06T09:15:29.088Z,-0.90
2019-02-06T09:17:59.488Z,-0.90
2019-02-06T09:20:29.902Z,-0.80
2019-02-06T09:22:59.320Z,-0.60
2019-02-06T09:25:29.312Z,-0.50
2019-02-06T09:27:58.365Z,-0.40
2019-02-06T09:30:28.743Z,-0.20
2019-02-06T09:32:57.798Z,-0.10
2019-02-06T09:35:26.681Z,-0.10
2019-02-06T09:37:55.083Z,-0.20
2019-02-06T09:40:31.375Z,-0.10
2019-02-06T09:43:00.039Z,0.00
2019-02-06T09:45:28.842Z,0.10
2019-02-06T09:47:57.329Z,0.20
2019-02-06T09:50:31.031Z,0.30
2019-02-06T09:52:59.586Z,0.30
2019-02-06T09:55:28.491Z,0.40
2019-02-06T09:57:57.072Z,0.50
2019-02-06T10:00:27.907Z,0.60
2019-02-06T10:02:56.489Z,0.70
2019-02-06T10:05:25.087Z,0.70
2019-02-06T10:07:53.559Z,0.80
2019-02-06T10:10:24.257Z,0.90
2019-02-06T10:12:52.853Z,0.90
2019-02-06T10:15:30.225Z,1.10
2019-02-06T10:17:59.355Z,1.30
2019-02-06T10:20:33.504Z,1.40
2019-02-06T10:23:02.219Z,1.50
2019-02-06T10:25:31.220Z,1.60
2019-02-06T10:27:59.816Z,1.60
2019-02-06T10:30:36.505Z,1.70
2019-02-06T10:33:05.779Z,1.70
2019-02-06T10:35:34.352Z,1.80
2019-02-06T10:38:02.790Z,1.80
2019-02-06T10:40:31.263Z,1.90
2019-02-06T10:43:00.009Z,2.00
2019-02-06T10:45:28.566Z,2.10
2019-02-06T10:47:57.378Z,2.20
2019-02-06T10:50:31.821Z,2.40
2019-02-06T10:53:00.292Z,2.40
2019-02-06T10:55:28.906Z,2.50
2019-02-06T10:57:57.317Z,2.40
2019-02-06T11:00:34.773Z,2.40
2019-02-06T11:03:03.219Z,2.50
2019-02-06T11:05:31.696Z,2.50
2019-02-06T11:08:00.198Z,2.60
2019-02-06T11:10:29.272Z,2.70
2019-02-06T11:12:57.861Z,2.80
2019-02-06T11:15:27.083Z,2.80
2019-02-06T11:17:55.872Z,2.80
2019-02-06T11:20:32.491Z,2.90
2019-02-06T11:23:01.139Z,3.00
2019-02-06T11:25:30.205Z,3.00
2019-02-06T11:27:59.897Z,3.00
2019-02-06T11:30:32.198Z,3.20
2019-02-06T11:33:00.697Z,3.10
2019-02-06T11:35:29.122Z,3.20
2019-02-06T11:37:57.683Z,3.20
2019-02-06T11:40:26.228Z,3.30
2019-02-06T11:42:54.819Z,3.30
2019-02-06T11:45:26.354Z,3.30
2019-02-06T11:47:54.838Z,3.40
2019-02-06T11:50:25.601Z,3.50
2019-02-06T11:52:54.121Z,3.50
2019-02-06T11:55:26.794Z,3.60
2019-02-06T11:57:55.227Z,3.50
2019-02-06T12:00:26.279Z,3.50
2019-02-06T12:02:54.743Z,3.60
2019-02-06T12:05:23.292Z,3.60
2019-02-06T12:07:51.721Z,3.60
2019-02-06T12:10:21.475Z,3.60
2019-02-06T12:12:49.969Z,3.60
2019-02-06T12:15:19.630Z,3.60
2019-02-06T12:17:48.135Z,3.50
2019-02-06T12:20:22.456Z,3.60
2019-02-06T12:22:50.860Z,3.60
2019-02-06T12:25:19.716Z,3.70
2019-02-06T12:27:54.227Z,3.80
2019-02-06T12:30:34.536Z,3.90
2019-02-06T12:33:03.025Z,3.90
2019-02-06T12:35:31.467Z,3.90
2019-02-06T12:38:00.518Z,4.00
2019-02-06T12:40:29.123Z,4.00
2019-02-06T12:42:57.545Z,4.10
2019-02-06T12:45:26.318Z,4.10
2019-02-06T12:47:55.447Z,4.10
2019-02-06T12:50:25.209Z,4.20
2019-02-06T12:52:53.742Z,4.20
2019-02-06T12:55:30.343Z,4.20
2019-02-06T12:57:58.847Z,4.30
2019-02-06T13:00:32.700Z,4.30
2019-02-06T13:03:01.275Z,4.30
2019-02-06T13:05:30.481Z,4.30
2019-02-06T13:07:59.363Z,4.30
2019-02-06T13:10:33.914Z,4.30
2019-02-06T13:12:58.177Z,4.40
2019-02-06T13:15:26.596Z,4.30
2019-02-06T13:17:55.782Z,4.30
2019-02-06T13:20:30.412Z,4.30
2019-02-06T13:22:59.040Z,4.30
2019-02-06T13:25:27.535Z,4.30
2019-02-06T13:27:55.948Z,4.40
2019-02-06T13:30:30.146Z,4.40
2019-02-06T13:32:58.676Z,4.60
2019-02-06T13:35:27.180Z,4.70
2019-02-06T13:37:55.682Z,4.80
2019-02-06T13:40:28.465Z,4.80
2019-02-06T13:42:57.832Z,4.80
2019-02-06T13:45:38.566Z,4.80
2019-02-06T13:48:07.104Z,4.80
2019-02-06T13:50:35.914Z,4.90
2019-02-06T13:53:05.068Z,5.00
2019-02-06T13:55:33.537Z,5.10
2019-02-06T13:58:01.981Z,5.20
2019-02-06T14:00:41.253Z,5.30
2019-02-06T14:03:09.942Z,5.50
2019-02-06T14:05:40.559Z,5.60
2019-02-06T14:08:11.726Z,5.80
2019-02-06T14:10:40.139Z,6.00
2019-02-06T14:13:08.708Z,5.80
2019-02-06T14:15:39.950Z,5.60
2019-02-06T14:18:08.693Z,5.30
2019-02-06T14:20:38.038Z,4.90
2019-02-06T14:23:12.262Z,4.70
2019-02-06T14:25:44.158Z,4.40
2019-02-06T14:28:21.408Z,4.10
2019-02-06T14:31:12.900Z,4.10
2019-02-06T14:34:05.828Z,3.90
2019-02-06T14:36:56.990Z,3.80
2019-02-06T14:39:31.716Z,3.60
2019-02-06T14:42:27.052Z,3.50
2019-02-06T14:45:16.404Z,3.40
2019-02-06T14:48:12.238Z,3.30
2019-02-06T14:50:49.691Z,3.10
2019-02-06T14:53:41.864Z,3.00
2019-02-06T14:56:34.603Z,2.80
2019-02-06T14:59:20.968Z,2.80
2019-02-06T15:02:16.770Z,2.70
2019-02-06T15:04:56.900Z,2.60
2019-02-06T15:07:40.305Z,2.70
2019-02-06T15:10:14.608Z,2.70
2019-02-06T15:13:04.158Z,2.70
2019-02-06T15:16:03.078Z,2.70
2019-02-06T15:18:40.087Z,2.60
2019-02-06T15:21:20.152Z,2.50
2019-02-06T15:24:03.536Z,2.50
2019-02-06T15:26:55.717Z,2.50
2019-02-06T15:29:29.958Z,2.50
2019-02-06T15:32:07.307Z,2.30
2019-02-06T15:34:56.751Z,2.30
2019-02-06T15:37:31.179Z,2.30
2019-02-06T15:40:20.698Z,2.10
2019-02-06T15:43:10.476Z,2.00
2019-02-06T15:45:41.970Z,1.80
2019-02-06T15:48:13.848Z,1.80
2019-02-06T15:50:51.104Z,1.70
2019-02-06T15:53:28.290Z,1.60
2019-02-06T15:56:34.226Z,1.50
2019-02-06T15:59:25.361Z,1.50
2019-02-06T16:02:09.009Z,1.40
2019-02-06T16:04:53.959Z,1.30
2019-02-06T16:07:57.093Z,1.20
2019-02-06T16:10:44.946Z,1.20
2019-02-06T16:13:40.384Z,1.10
2019-02-06T16:16:40.340Z,1.10
2019-02-06T16:19:24.075Z,1.00
2019-02-06T16:22:13.784Z,1.00
2019-02-06T16:24:45.260Z,0.90
2019-02-06T16:27:20.064Z,0.90
2019-02-06T16:30:00.971Z,0.90
2019-02-06T16:32:49.282Z,0.80
2019-02-06T16:35:23.751Z,0.70
2019-02-06T16:37:58.239Z,0.60
2019-02-06T16:40:47.794Z,0.60
2019-02-06T16:43:28.362Z,0.50
2019-02-06T16:46:19.344Z,0.50
2019-02-06T16:48:56.041Z,0.50
2019-02-06T16:51:30.279Z,0.50
2019-02-06T16:54:19.711Z,0.40
2019-02-06T16:56:56.863Z,0.40
2019-02-06T16:59:37.183Z,0.30
2019-02-06T17:02:15.624Z,0.40
2019-02-06T17:05:04.068Z,0.30
2019-02-06T17:07:51.695Z,0.20
2019-02-06T17:10:39.659Z,0.20
2019-02-06T17:13:20.421Z,0.10
2019-02-06T17:16:16.098Z,0.20
2019-02-06T17:18:50.372Z,0.30
2019-02-06T17:21:38.248Z,0.20
2019-02-06T17:24:21.888Z,0.10
2019-02-06T17:26:59.160Z,0.00
2019-02-06T17:29:48.992Z,0.00
2019-02-06T17:32:29.357Z,-0.10
2019-02-06T17:35:35.708Z,-0.10
2019-02-06T17:38:16.129Z,-0.20
2019-02-06T17:40:55.965Z,-0.20
2019-02-06T17:43:36.169Z,-0.20
2019-02-06T17:46:36.205Z,-0.30
2019-02-06T17:49:35.477Z,-0.30
2019-02-06T17:52:26.497Z,-0.30
2019-02-06T17:54:59.594Z,-0.30
2019-02-06T17:57:28.242Z,-0.10
2019-02-06T17:59:56.678Z,-0.20
2019-02-06T18:02:25.162Z,-0.20
2019-02-06T18:04:54.570Z,-0.20
2019-02-06T18:07:23.057Z,-0.30
2019-02-06T18:09:51.486Z,-0.30
2019-02-06T18:12:26.118Z,-0.30
2019-02-06T18:14:50.053Z,-0.40
2019-02-06T18:17:18.859Z,-0.40
2019-02-06T18:19:47.331Z,-0.40
2019-02-06T18:22:15.812Z,-0.40
2019-02-06T18:24:44.234Z,-0.40
2019-02-06T18:27:12.838Z,-0.30
2019-02-06T18:29:41.417Z,-0.40
2019-02-06T18:32:09.934Z,-0.40
2019-02-06T18:34:38.858Z,-0.50
2019-02-06T18:37:07.438Z,-0.40
2019-02-06T18:39:35.863Z,-0.50
2019-02-06T18:42:04.830Z,-0.50
2019-02-06T18:44:33.262Z,-0.50
2019-02-06T18:47:01.742Z,-0.40
2019-02-06T18:49:30.260Z,-0.40
2019-02-06T18:51:58.738Z,-0.50
2019-02-06T18:54:27.538Z,-0.50
2019-02-06T18:56:56.032Z,-0.50
2019-02-06T18:59:24.494Z,-0.60
2019-02-06T19:01:55.398Z,-0.50
2019-02-06T19:04:23.319Z,-0.50
2019-02-06T19:06:51.780Z,-0.40
2019-02-06T19:09:20.423Z,-0.60
2019-02-06T19:11:48.892Z,-0.60
2019-02-06T19:14:17.891Z,-0.60
2019-02-06T19:16:46.436Z,-0.70
2019-02-06T19:19:24.828Z,-0.70
2019-02-06T19:21:45.028Z,-0.80
2019-02-06T19:24:13.454Z,-0.80
2019-02-06T19:26:41.903Z,-0.70
2019-02-06T19:29:10.531Z,-0.80
2019-02-06T19:31:39.260Z,-0.80
2019-02-06T19:34:07.730Z,-0.70
2019-02-06T19:36:36.165Z,-0.70
2019-02-06T19:39:06.881Z,-0.70
2019-02-06T19:41:35.302Z,-0.80
2019-02-06T19:44:04.123Z,-0.90
2019-02-06T19:46:32.558Z,-1.00
2019-02-06T19:49:01.007Z,-1.00
2019-02-06T19:51:29.693Z,-1.00
2019-02-06T19:53:58.111Z,-1.00
2019-02-06T19:56:26.618Z,-0.90
2019-02-06T19:58:55.091Z,-0.90
2019-02-06T20:01:23.532Z,-1.00
2019-02-06T20:03:52.780Z,-0.90
2019-02-06T20:06:30.690Z,-1.00
2019-02-06T20:09:00.187Z,-1.00
2019-02-06T20:11:28.765Z,-0.90
2019-02-06T20:13:57.341Z,-0.90
2019-02-06T20:16:25.764Z,-0.90
2019-02-06T20:18:54.206Z,-1.00
2019-02-06T20:21:22.693Z,-1.00
2019-02-06T20:23:51.142Z,-1.00
2019-02-06T20:26:20.043Z,-0.90
2019-02-06T20:28:48.466Z,-0.90
2019-02-06T20:31:17.042Z,-1.00
2019-02-06T20:33:45.566Z,-1.00
2019-02-06T20:36:14.054Z,-1.00
2019-02-06T20:38:42.461Z,-1.00
2019-02-06T20:41:10.986Z,-1.00
2019-02-06T20:43:39.415Z,-1.00
2019-02-06T20:46:07.997Z,-1.00
2019-02-06T20:48:36.404Z,-1.00
2019-02-06T20:51:04.913Z,-1.00
2019-02-06T20:53:33.326Z,-1.00
2019-02-06T20:56:01.752Z,-1.10
2019-02-06T20:58:30.176Z,-1.10
2019-02-06T21:00:58.580Z,-1.10
2019-02-06T21:03:27.286Z,-1.10
2019-02-06T21:05:55.697Z,-1.10
2019-02-06T21:08:24.121Z,-1.00
2019-02-06T21:10:52.588Z,-1.00
2019-02-06T21:13:21.021Z,-1.00
2019-02-06T21:15:49.442Z,-1.00
2019-02-06T21:18:17.878Z,-1.00
2019-02-06T21:20:46.359Z,-1.00
2019-02-06T21:23:14.818Z,-1.10
2019-02-06T21:25:43.264Z,-1.10
2019-02-06T21:28:11.701Z,-1.10
2019-02-06T21:30:41.852Z,-1.10
2019-02-06T21:33:10.289Z,-1.10
2019-02-06T21:35:39.080Z,-1.10
2019-02-06T21:38:07.507Z,-1.10
2019-02-06T21:40:37.196Z,-1.10
2019-02-06T21:43:06.751Z,-1.10
2019-02-06T21:45:35.292Z,-1.10
2019-02-06T21:48:04.638Z,-1.10
2019-02-06T21:50:33.114Z,-1.10
2019-02-06T21:53:01.549Z,-1.10
2019-02-06T21:55:30.265Z,-1.10
2019-02-06T21:57:58.828Z,-1.10
2019-02-06T22:00:38.578Z,-1.10
2019-02-06T22:03:07.386Z,-1.00
2019-02-06T22:05:37.728Z,-1.10
2019-02-06T22:08:06.587Z,-1.10
2019-02-06T22:10:35.458Z,-1.20
2019-02-06T22:13:04.438Z,-1.20
2019-02-06T22:15:33.241Z,-1.20
2019-02-06T22:18:01.799Z,-1.20
2019-02-06T22:20:30.730Z,-1.30
2019-02-06T22:22:59.195Z,-1.30
2019-02-06T22:25:27.693Z,-1.30
2019-02-06T22:27:56.199Z,-1.40
2019-02-06T22:30:29.421Z,-1.30
2019-02-06T22:32:58.488Z,-1.20
2019-02-06T22:35:27.673Z,-1.20
2019-02-06T22:37:56.173Z,-1.20
2019-02-06T22:40:25.819Z,-1.30
2019-02-06T22:42:54.259Z,-1.40
2019-02-06T22:45:25.110Z,-1.50
2019-02-06T22:47:53.962Z,-1.50
2019-02-06T22:50:25.115Z,-1.60
2019-02-06T22:52:53.666Z,-1.60
2019-02-06T22:55:22.270Z,-1.60
2019-02-06T22:57:50.681Z,-1.60
2019-02-06T23:00:53.386Z,-1.60
2019-02-06T23:03:30.730Z,-1.60
2019-02-06T23:05:59.221Z,-1.60
2019-02-06T23:08:27.764Z,-1.60
2019-02-06T23:10:56.797Z,-1.60
2019-02-06T23:13:25.238Z,-1.40
2019-02-06T23:15:53.719Z,-1.50
2019-02-06T23:18:22.265Z,-1.60
2019-02-06T23:20:50.685Z,-1.60
2019-02-06T23:23:19.174Z,-1.60
2019-02-06T23:25:49.668Z,-1.60
2019-02-06T23:28:18.092Z,-1.60
2019-02-06T23:30:46.587Z,-1.60
2019-02-06T23:33:15.362Z,-1.60
2019-02-06T23:35:43.806Z,-1.60
2019-02-06T23:38:12.217Z,-1.70
2019-02-06T23:40:40.756Z,-1.60
2019-02-06T23:43:09.458Z,-1.60
2019-02-06T23:45:37.965Z,-1.60
2019-02-06T23:48:09.474Z,-1.70
2019-02-06T23:50:39.014Z,-1.70
2019-02-06T23:53:07.486Z,-1.80
2019-02-06T23:55:35.928Z,-1.80
2019-02-06T23:58:24.052Z,-1.80
